Grass Lake, MI (49240)

01:55 PM EDT del 29 Luglio 2015 (GMT -0400)
South of I-94 in Grass Lake Michigan | | Change Station
CLOSE
Current Station
Stazione meteo personale
Location: Grass Lake Charter Township, MI
Altitudine: 1010 ft
Stazioni meteo nelle vicinanze

Alt. 1010 ft 42.28 °N, 84.19 °W | Updated 6 seconds ago

Molto nuvoloso
Molto nuvoloso
88.6 °F
Sembra 99 °F
N
7.0
Vento Variabile Vento da OSO
Gusts 11.0 mph

Oggi
Massima -- | Minima -- °F
--% Possibilità di precip.
Ieri
Massima -- | Minima -- °F
Precip. -- in
6:26 AM 8:59 PM
Gobba a ponente, 96% visible
Pressione 29.92 in
Visibilità 10.0 miglia
Nuvole Alcuni 2600 ft
Nubi sparse 3600 ft
Molto nuvoloso 6500 ft
Indice di calore 99 °F
Punto di rugiada 75 °F
Umidità 65%
Piovosità 0.00 in
Spessore del manto nevoso Non disponibile.
Raggi UV 6 fuori da 12
Polline 5.80 fuori da 12
Qualità dell'aria Non disponibile.
Flu Activity Non disponibile.
METAR KJXN 291656Z 23012KT 10SM FEW026 SCT036 BKN065 31/23 A2994 RMK AO2 SLP130 T03060233 $

More Conditions Fewer Conditions

Pressione 29.92 in
Visibilità 10.0 miglia
Nuvole Alcuni 2600 ft
Nubi sparse 3600 ft
Molto nuvoloso 6500 ft
Indice di calore 99 °F
Punto di rugiada 75 °F
Umidità 65%
Piovosità 0.00 in
Spessore del manto nevoso Non disponibile.
Raggi UV 6 fuori da 12
Polline 5.80 fuori da 12
Qualità dell'aria Non disponibile.
Flu Activity Non disponibile.
METAR KJXN 291656Z 23012KT 10SM FEW026 SCT036 BKN065 31/23 A2994 RMK AO2 SLP130 T03060233 $

More Conditions Fewer Conditions

10-Day Weather Forecast

×

Almanac

Astronomia

Jul. 29, 2015 Alba Tramonto
Ora attuale
Crepuscolo civile
Crepuscolo nautico
Crepuscolo astronomico
Luna
Estensione della luce visibile
Lunghezza del giorno
Tomorrow will be .
, % of the Moon is Illuminated

Gli estremi di oggi

State Highs State Lows

Community

WunderPhotos

Upload Photos

1,842,135 foto caricate!

WunderBlogs® & News

Nearby

Qualità dell'aria

  Qualità dell'aria Indice AQ Inquinante
Not available.

Profondità neve

Stazione Profondità Altitudine

Attività sismica

Città  Distanza Mag. Data & Ora
Minimo Magnitudo Mostrato è 2.5.

Temperature delle acque costiere

Località Temperatura

Stations

Stazioni meteo nelle vicinanze

Ubicazione della stazione Temp. Raffreddamento del vento Punto di rugiada Umidità Vento Precip. Alt. Aggiornato Tipo